createdAt,value
2023-04-24T00:01:46.182Z,84.37
2023-04-24T00:04:15.365Z,83.86
2023-04-24T00:06:43.785Z,84.51
2023-04-24T00:09:11.115Z,84.20
2023-04-24T00:11:37.847Z,84.71
2023-04-24T00:14:04.412Z,84.98
2023-04-24T00:16:30.881Z,85.83
2023-04-24T00:18:57.372Z,85.75
2023-04-24T00:21:26.560Z,85.96
2023-04-24T00:23:53.921Z,86.72
2023-04-24T00:26:21.006Z,86.07
2023-04-24T00:28:47.501Z,85.34
2023-04-24T00:31:14.055Z,85.95
2023-04-24T00:33:40.941Z,86.43
2023-04-24T00:36:08.003Z,86.09
2023-04-24T00:38:34.647Z,86.78
2023-04-24T00:41:01.142Z,86.25
2023-04-24T00:43:27.664Z,86.59
2023-04-24T00:45:54.283Z,85.00
2023-04-24T00:48:21.478Z,85.10
2023-04-24T00:50:47.967Z,83.71
2023-04-24T00:53:14.488Z,83.06
2023-04-24T00:55:41.199Z,83.15
2023-04-24T00:58:07.675Z,84.27
2023-04-24T01:00:34.466Z,84.84
2023-04-24T01:03:02.986Z,85.33
2023-04-24T01:05:29.929Z,85.73
2023-04-24T01:07:56.996Z,85.46
2023-04-24T01:10:24.275Z,84.76
2023-04-24T01:12:51.714Z,84.18
2023-04-24T01:15:18.855Z,85.17
2023-04-24T01:17:46.110Z,84.58
2023-04-24T01:20:13.810Z,85.27
2023-04-24T01:22:41.406Z,84.96
2023-04-24T01:25:08.442Z,86.55
2023-04-24T01:27:35.536Z,86.24
2023-04-24T01:30:02.429Z,86.12
2023-04-24T01:32:29.263Z,87.58
2023-04-24T01:34:56.602Z,87.07
2023-04-24T01:37:23.671Z,86.87
2023-04-24T01:39:50.550Z,85.73
2023-04-24T01:42:17.757Z,85.90
2023-04-24T01:44:44.863Z,87.10
2023-04-24T01:47:12.442Z,86.77
2023-04-24T01:49:40.136Z,86.91
2023-04-24T01:52:06.957Z,86.31
2023-04-24T01:54:34.153Z,85.62
2023-04-24T01:57:02.045Z,86.50
2023-04-24T01:59:29.087Z,86.79
2023-04-24T02:01:55.726Z,87.39
2023-04-24T02:04:22.738Z,85.94
2023-04-24T02:06:49.564Z,85.45
2023-04-24T02:09:17.019Z,86.23
2023-04-24T02:11:44.467Z,85.35
2023-04-24T02:14:11.111Z,85.96
2023-04-24T02:16:37.582Z,85.65
2023-04-24T02:19:04.542Z,85.57
2023-04-24T02:21:32.072Z,86.68
2023-04-24T02:23:58.699Z,86.60
2023-04-24T02:26:25.959Z,86.07
2023-04-24T02:28:52.660Z,86.37
2023-04-24T02:31:19.213Z,86.32
2023-04-24T02:33:45.814Z,85.76
2023-04-24T02:36:12.498Z,85.06
2023-04-24T02:38:39.074Z,86.60
2023-04-24T02:41:07.227Z,85.99
2023-04-24T02:43:34.397Z,86.01
2023-04-24T02:46:01.031Z,86.28
2023-04-24T02:48:27.458Z,86.39
2023-04-24T02:50:54.150Z,85.10
2023-04-24T02:53:20.652Z,85.51
2023-04-24T02:55:47.180Z,85.81
2023-04-24T02:58:14.127Z,85.71
2023-04-24T03:00:40.924Z,86.32
2023-04-24T03:03:08.302Z,86.83
2023-04-24T03:05:35.017Z,86.86
2023-04-24T03:08:01.743Z,86.42
2023-04-24T03:10:28.232Z,86.47
2023-04-24T03:12:56.041Z,85.21
2023-04-24T03:15:22.796Z,85.32
2023-04-24T03:17:49.283Z,84.47
2023-04-24T03:20:15.822Z,83.80
2023-04-24T03:22:42.254Z,81.48
2023-04-24T03:25:10.459Z,81.18
2023-04-24T03:27:37.147Z,81.14
2023-04-24T03:30:04.145Z,80.62
2023-04-24T03:32:31.350Z,80.08
2023-04-24T03:34:57.993Z,81.18
2023-04-24T03:37:24.489Z,81.12
2023-04-24T03:39:51.028Z,80.09
2023-04-24T03:42:17.556Z,79.63
2023-04-24T03:44:44.330Z,78.22
2023-04-24T03:47:11.053Z,79.15
2023-04-24T03:49:37.718Z,77.91
2023-04-24T03:52:04.270Z,76.75
2023-04-24T03:54:30.919Z,76.80
2023-04-24T03:56:57.476Z,75.85
2023-04-24T03:59:23.961Z,76.62
2023-04-24T04:01:51.183Z,75.85
2023-04-24T04:04:17.960Z,77.14
2023-04-24T04:06:45.206Z,75.29
2023-04-24T04:09:11.826Z,75.67
2023-04-24T04:11:38.318Z,75.44
2023-04-24T04:14:04.893Z,75.86
2023-04-24T04:16:31.391Z,75.64
2023-04-24T04:18:57.908Z,74.88
2023-04-24T04:21:24.480Z,74.50
2023-04-24T04:23:51.028Z,74.18
2023-04-24T04:26:17.447Z,73.96
2023-04-24T04:28:45.891Z,74.39
2023-04-24T04:31:13.865Z,74.12
2023-04-24T04:33:40.791Z,73.66
2023-04-24T04:36:07.560Z,73.74
2023-04-24T04:38:34.656Z,72.89
2023-04-24T04:41:01.619Z,72.02
2023-04-24T04:43:28.320Z,73.04
2023-04-24T04:45:55.909Z,72.99
2023-04-24T04:48:23.244Z,72.63
2023-04-24T04:50:49.723Z,73.04
2023-04-24T04:53:16.148Z,72.21
2023-04-24T04:55:42.904Z,72.19
2023-04-24T04:58:09.398Z,72.03
2023-04-24T05:00:38.398Z,70.95
2023-04-24T05:03:19.290Z,70.92
2023-04-24T05:05:47.945Z,70.94
2023-04-24T05:08:25.736Z,70.21
2023-04-24T05:10:54.246Z,69.71
2023-04-24T05:13:28.443Z,69.56
2023-04-24T05:15:59.216Z,68.72
2023-04-24T05:18:25.820Z,68.49
2023-04-24T05:20:52.268Z,68.55
2023-04-24T05:23:18.685Z,66.83
2023-04-24T05:25:45.395Z,66.22
2023-04-24T05:28:11.876Z,66.74
2023-04-24T05:30:38.435Z,65.80
2023-04-24T05:33:04.969Z,65.60
2023-04-24T05:35:31.436Z,65.71
2023-04-24T05:37:58.067Z,65.35
2023-04-24T05:40:24.690Z,64.30
2023-04-24T05:42:51.131Z,64.37
2023-04-24T05:45:18.732Z,64.81
2023-04-24T05:47:45.970Z,65.00
2023-04-24T05:50:12.841Z,63.41
2023-04-24T05:52:39.437Z,62.50
2023-04-24T05:55:06.419Z,62.48
2023-04-24T05:57:32.916Z,62.69
2023-04-24T05:59:59.428Z,62.77
2023-04-24T06:02:26.030Z,62.43
2023-04-24T06:04:52.918Z,62.75
2023-04-24T06:07:19.436Z,61.43
2023-04-24T06:09:45.966Z,62.37
2023-04-24T06:12:12.429Z,60.62
2023-04-24T06:14:38.977Z,60.91
2023-04-24T06:17:05.713Z,60.93
2023-04-24T06:19:32.124Z,60.09
2023-04-24T06:21:59.301Z,60.27
2023-04-24T06:24:29.482Z,60.05
2023-04-24T06:26:58.153Z,58.27
2023-04-24T06:29:24.725Z,55.42
2023-04-24T06:31:51.237Z,54.50
2023-04-24T06:34:17.707Z,53.90
2023-04-24T06:36:44.229Z,53.32
2023-04-24T06:39:10.857Z,53.34
2023-04-24T06:41:37.387Z,54.03
2023-04-24T06:44:03.809Z,54.63
2023-04-24T06:46:30.843Z,51.67
2023-04-24T06:48:57.411Z,52.24
2023-04-24T06:51:27.629Z,50.53
2023-04-24T06:53:54.617Z,49.84
2023-04-24T06:56:21.976Z,50.82
2023-04-24T06:58:49.012Z,50.24
2023-04-24T07:01:15.898Z,49.75
2023-04-24T07:03:43.285Z,50.31
2023-04-24T07:06:12.171Z,48.91
2023-04-24T07:08:38.688Z,47.70
2023-04-24T07:11:05.441Z,44.01
2023-04-24T07:13:31.840Z,44.81
2023-04-24T07:15:58.369Z,45.88
2023-04-24T07:18:25.059Z,46.68
2023-04-24T07:20:51.846Z,47.12
2023-04-24T07:23:18.969Z,48.28
2023-04-24T07:25:45.653Z,50.14
2023-04-24T07:28:12.167Z,49.04
2023-04-24T07:30:38.599Z,47.65
2023-04-24T07:33:05.103Z,47.53
2023-04-24T07:35:31.746Z,49.73
2023-04-24T07:37:58.579Z,49.81
2023-04-24T07:40:25.096Z,48.44
2023-04-24T07:42:51.804Z,50.39
2023-04-24T07:45:18.258Z,51.27
2023-04-24T07:47:46.564Z,50.19
2023-04-24T07:50:14.053Z,49.59
2023-04-24T07:52:40.563Z,50.51
2023-04-24T07:55:08.062Z,49.93
2023-04-24T07:57:34.762Z,48.29
2023-04-24T08:00:02.017Z,51.03
2023-04-24T08:02:28.953Z,52.29
2023-04-24T08:04:56.303Z,50.84
2023-04-24T08:07:24.584Z,50.48
2023-04-24T08:09:51.040Z,49.68
2023-04-24T08:12:17.459Z,49.76
2023-04-24T08:14:44.101Z,49.89
2023-04-24T08:17:10.948Z,47.80
2023-04-24T08:19:37.436Z,47.06
2023-04-24T08:22:05.164Z,46.90
2023-04-24T08:24:31.638Z,49.23
2023-04-24T08:26:58.947Z,50.55
2023-04-24T08:29:25.865Z,51.43
2023-04-24T08:31:52.597Z,51.44
2023-04-24T08:34:19.015Z,51.98
2023-04-24T08:36:47.552Z,51.91
2023-04-24T08:39:15.273Z,53.36
2023-04-24T08:41:44.282Z,52.66
2023-04-24T08:44:11.924Z,52.09
2023-04-24T08:46:38.537Z,51.71
2023-04-24T08:49:05.780Z,50.57
2023-04-24T08:51:32.271Z,51.52
2023-04-24T08:53:58.911Z,50.59
2023-04-24T08:56:25.738Z,50.77
2023-04-24T08:58:52.902Z,49.27
2023-04-24T09:01:21.013Z,48.65
2023-04-24T09:03:50.556Z,48.26
2023-04-24T09:06:18.846Z,47.69
2023-04-24T09:08:46.489Z,47.41
2023-04-24T09:11:13.207Z,47.26
2023-04-24T09:13:40.398Z,45.87
2023-04-24T09:16:07.239Z,45.44
2023-04-24T09:18:34.689Z,45.87
2023-04-24T09:21:03.663Z,47.51
2023-04-24T09:23:32.010Z,48.05
2023-04-24T09:26:01.095Z,48.19
2023-04-24T09:28:31.007Z,47.36
2023-04-24T09:31:24.195Z,47.75
2023-04-24T09:34:01.505Z,48.02
2023-04-24T09:36:38.080Z,46.45
2023-04-24T09:39:06.471Z,47.90
2023-04-24T09:41:33.817Z,48.95
2023-04-24T09:44:17.173Z,47.85
2023-04-24T09:46:45.770Z,48.16
2023-04-24T09:49:17.527Z,48.07
2023-04-24T09:51:44.605Z,47.95
2023-04-24T09:54:16.710Z,47.39
2023-04-24T09:56:45.609Z,48.18
2023-04-24T09:59:13.340Z,48.44
2023-04-24T10:01:43.012Z,47.79
2023-04-24T10:04:29.934Z,48.69
2023-04-24T10:06:57.560Z,48.56
2023-04-24T10:09:26.513Z,49.42
2023-04-24T10:11:54.718Z,48.60
2023-04-24T10:14:22.989Z,48.40
2023-04-24T10:16:50.459Z,47.57
2023-04-24T10:19:19.653Z,47.69
2023-04-24T10:21:49.599Z,47.43
2023-04-24T10:24:18.220Z,48.20
2023-04-24T10:26:46.184Z,47.55
2023-04-24T10:29:13.965Z,47.53
2023-04-24T10:31:41.148Z,46.09
2023-04-24T10:34:08.901Z,42.23
2023-04-24T10:36:36.690Z,40.94
2023-04-24T10:39:05.972Z,39.42
2023-04-24T10:41:32.378Z,37.20
2023-04-24T10:44:13.289Z,39.35
2023-04-24T10:46:44.341Z,41.90
2023-04-24T10:49:10.974Z,43.34
2023-04-24T10:51:49.057Z,44.15
2023-04-24T10:54:42.305Z,44.92
2023-04-24T10:57:21.741Z,45.53
2023-04-24T10:59:52.838Z,45.35
2023-04-24T11:02:19.761Z,45.36
2023-04-24T11:04:47.308Z,45.12
2023-04-24T11:07:14.094Z,46.28
2023-04-24T11:09:43.874Z,46.88
2023-04-24T11:12:11.952Z,48.20
2023-04-24T11:14:56.882Z,48.62
2023-04-24T11:17:35.071Z,49.25
2023-04-24T11:20:22.867Z,50.01
2023-04-24T11:22:55.680Z,49.95
2023-04-24T11:25:23.719Z,50.86
2023-04-24T11:27:51.174Z,50.30
2023-04-24T11:30:21.582Z,49.74
2023-04-24T11:32:54.340Z,49.46
2023-04-24T11:35:26.037Z,48.96
2023-04-24T11:38:18.777Z,48.77
2023-04-24T11:40:40.996Z,48.12
2023-04-24T11:43:08.500Z,47.33
2023-04-24T11:45:35.239Z,47.03
2023-04-24T11:48:04.065Z,46.50
2023-04-24T11:50:30.707Z,46.81
2023-04-24T11:52:57.667Z,48.35
2023-04-24T11:55:29.086Z,48.31
2023-04-24T11:58:00.171Z,48.45
2023-04-24T12:00:29.365Z,49.72
2023-04-24T12:03:10.098Z,49.71
2023-04-24T12:05:37.273Z,51.49
2023-04-24T12:08:04.031Z,51.01
2023-04-24T12:10:32.110Z,48.74
2023-04-24T12:12:59.337Z,49.12
2023-04-24T12:15:26.995Z,48.32
2023-04-24T12:17:54.844Z,47.86
2023-04-24T12:20:31.455Z,46.77
2023-04-24T12:22:59.827Z,46.12
2023-04-24T12:25:32.246Z,46.75
2023-04-24T12:28:04.887Z,46.28
2023-04-24T12:30:33.444Z,45.51
2023-04-24T12:33:01.346Z,44.46
2023-04-24T12:35:29.836Z,43.14
2023-04-24T12:37:56.386Z,43.11
2023-04-24T12:40:23.150Z,41.94
2023-04-24T12:42:51.668Z,40.88
2023-04-24T12:45:19.865Z,41.82
2023-04-24T12:47:47.172Z,43.02
2023-04-24T12:50:16.009Z,42.18
2023-04-24T12:52:43.061Z,43.52
2023-04-24T12:55:10.287Z,43.00
2023-04-24T12:57:38.952Z,41.70
2023-04-24T13:00:07.541Z,41.01
2023-04-24T13:02:35.336Z,39.18
2023-04-24T13:05:02.465Z,38.59
2023-04-24T13:07:29.115Z,40.03
2023-04-24T13:09:56.883Z,39.78
2023-04-24T13:12:27.837Z,37.18
2023-04-24T13:14:54.665Z,35.57
2023-04-24T13:17:21.483Z,34.81
2023-04-24T13:19:50.175Z,34.71
2023-04-24T13:22:16.811Z,34.87
2023-04-24T13:24:43.362Z,36.32
2023-04-24T13:27:10.678Z,35.12
2023-04-24T13:29:38.121Z,35.39
2023-04-24T13:32:04.713Z,36.46
2023-04-24T13:34:31.571Z,36.61
2023-04-24T13:36:59.442Z,38.03
2023-04-24T13:39:27.090Z,36.23
2023-04-24T13:41:54.360Z,34.47
2023-04-24T13:44:21.769Z,33.88
2023-04-24T13:46:49.581Z,33.67
2023-04-24T13:49:16.737Z,33.75
2023-04-24T13:51:44.006Z,34.09
2023-04-24T13:54:10.560Z,33.50
2023-04-24T13:56:36.995Z,33.92
2023-04-24T13:59:03.852Z,35.06
2023-04-24T14:01:30.484Z,34.15
2023-04-24T14:03:57.572Z,35.01
2023-04-24T14:06:24.602Z,34.00
2023-04-24T14:08:51.608Z,33.81
2023-04-24T14:11:18.775Z,34.43
2023-04-24T14:13:46.513Z,33.95
2023-04-24T14:16:14.046Z,34.62
2023-04-24T14:18:41.059Z,36.22
2023-04-24T14:21:07.839Z,34.82
2023-04-24T14:23:34.336Z,34.27
2023-04-24T14:26:00.930Z,32.22
2023-04-24T14:28:27.651Z,34.35
2023-04-24T14:30:54.406Z,35.28
2023-04-24T14:33:20.930Z,34.12
2023-04-24T14:35:47.458Z,33.08
2023-04-24T14:38:14.074Z,33.56
2023-04-24T14:43:10.759Z,35.36
2023-04-24T14:45:38.089Z,35.77
2023-04-24T14:48:04.803Z,35.45
2023-04-24T14:50:31.473Z,34.97
2023-04-24T14:53:02.963Z,35.00
2023-04-24T14:55:29.869Z,35.14
2023-04-24T14:57:56.567Z,36.14
2023-04-24T15:00:24.957Z,36.13
2023-04-24T15:02:51.826Z,36.66
2023-04-24T15:05:18.826Z,37.15
2023-04-24T15:07:46.401Z,36.67
2023-04-24T15:10:13.072Z,37.11
2023-04-24T15:12:39.953Z,36.68
2023-04-24T15:15:07.199Z,36.30
2023-04-24T15:17:33.752Z,37.32
2023-04-24T15:20:01.816Z,36.36
2023-04-24T15:22:28.574Z,35.93
2023-04-24T15:24:55.091Z,35.23
2023-04-24T15:27:21.593Z,36.75
2023-04-24T15:29:48.098Z,36.40
2023-04-24T15:32:14.604Z,37.27
2023-04-24T15:34:41.345Z,37.35
2023-04-24T15:37:07.881Z,37.21
2023-04-24T15:39:34.294Z,37.66
2023-04-24T15:42:01.640Z,38.22
2023-04-24T15:44:28.168Z,38.32
2023-04-24T15:46:56.261Z,39.04
2023-04-24T15:49:22.939Z,39.05
2023-04-24T15:51:49.441Z,39.42
2023-04-24T15:54:15.943Z,39.73
2023-04-24T15:56:42.655Z,39.39
2023-04-24T15:59:09.408Z,40.03
2023-04-24T16:01:36.026Z,40.37
2023-04-24T16:04:03.011Z,42.22
2023-04-24T16:06:29.603Z,40.71
2023-04-24T16:08:58.506Z,40.24
2023-04-24T16:11:26.321Z,40.94
2023-04-24T16:13:52.870Z,40.52
2023-04-24T16:16:19.457Z,41.41
2023-04-24T16:18:46.419Z,41.31
2023-04-24T16:21:13.202Z,41.22
2023-04-24T16:23:39.697Z,41.71
2023-04-24T16:26:06.234Z,41.04
2023-04-24T16:28:32.838Z,41.37
2023-04-24T16:30:59.650Z,41.57
2023-04-24T16:33:26.489Z,42.88
2023-04-24T16:35:53.245Z,42.54
2023-04-24T16:38:20.075Z,43.43
2023-04-24T16:40:46.528Z,44.24
2023-04-24T16:43:12.949Z,44.03
2023-04-24T16:45:39.461Z,44.78
2023-04-24T16:48:06.221Z,45.34
2023-04-24T16:50:33.161Z,45.48
2023-04-24T16:52:59.665Z,46.08
2023-04-24T16:55:26.394Z,44.44
2023-04-24T16:57:53.203Z,44.30
2023-04-24T17:00:19.949Z,44.88
2023-04-24T17:02:48.962Z,44.26
2023-04-24T17:05:15.849Z,44.61
2023-04-24T17:07:42.550Z,44.83
2023-04-24T17:10:09.463Z,45.37
2023-04-24T17:12:35.908Z,45.34
2023-04-24T17:15:02.564Z,45.35
2023-04-24T17:17:29.053Z,45.90
2023-04-24T17:19:55.564Z,46.00
2023-04-24T17:22:22.169Z,46.08
2023-04-24T17:24:48.661Z,47.25
2023-04-24T17:27:15.694Z,47.34
2023-04-24T17:29:42.466Z,48.23
2023-04-24T17:32:09.893Z,48.33
2023-04-24T17:34:36.462Z,49.03
2023-04-24T17:37:04.872Z,49.42
2023-04-24T17:39:31.366Z,49.78
2023-04-24T17:41:58.260Z,48.95
2023-04-24T17:44:25.087Z,49.79
2023-04-24T17:46:51.726Z,49.38
2023-04-24T17:49:18.286Z,50.07
2023-04-24T17:51:44.935Z,49.43
2023-04-24T17:54:12.314Z,50.16
2023-04-24T17:56:38.734Z,49.68
2023-04-24T17:59:05.246Z,50.72
2023-04-24T18:01:31.838Z,49.94
2023-04-24T18:03:58.562Z,50.70
2023-04-24T18:06:25.291Z,49.54
2023-04-24T18:08:51.749Z,50.95
2023-04-24T18:11:18.458Z,50.40
2023-04-24T18:13:46.572Z,51.50
2023-04-24T18:16:13.178Z,50.83
2023-04-24T18:18:39.815Z,51.26
2023-04-24T18:21:06.399Z,52.22
2023-04-24T18:23:33.066Z,52.57
2023-04-24T18:25:59.494Z,52.01
2023-04-24T18:28:25.964Z,51.08
2023-04-24T18:30:52.618Z,51.66
2023-04-24T18:33:19.092Z,51.94
2023-04-24T18:35:45.745Z,52.12
2023-04-24T18:38:12.295Z,51.91
2023-04-24T18:40:39.050Z,51.87
2023-04-24T18:43:06.306Z,52.54
2023-04-24T18:45:32.902Z,52.87
2023-04-24T18:47:59.430Z,52.67
2023-04-24T18:50:27.703Z,52.66
2023-04-24T18:52:54.273Z,53.06
2023-04-24T18:55:21.013Z,53.76
2023-04-24T18:57:47.824Z,53.48
2023-04-24T19:00:14.632Z,54.10
2023-04-24T19:02:41.423Z,53.54
2023-04-24T19:05:10.335Z,54.08
2023-04-24T19:07:36.952Z,54.25
2023-04-24T19:10:03.984Z,54.74
2023-04-24T19:12:30.618Z,54.20
2023-04-24T19:14:57.985Z,53.26
2023-04-24T19:17:25.519Z,53.61
2023-04-24T19:19:52.357Z,53.90
2023-04-24T19:22:20.498Z,53.86
2023-04-24T19:24:47.664Z,53.70
2023-04-24T19:27:14.436Z,53.90
2023-04-24T19:29:42.133Z,54.56
2023-04-24T19:32:09.015Z,54.40
2023-04-24T19:34:36.725Z,56.14
2023-04-24T19:37:04.666Z,55.63
2023-04-24T19:39:32.437Z,56.35
2023-04-24T19:42:00.305Z,56.08
2023-04-24T19:44:26.893Z,55.85
2023-04-24T19:46:53.572Z,57.22
2023-04-24T19:49:20.041Z,56.85
2023-04-24T19:51:46.564Z,57.74
2023-04-24T19:54:13.930Z,57.91
2023-04-24T19:56:40.537Z,57.40
2023-04-24T19:59:07.734Z,58.76
2023-04-24T20:01:34.319Z,59.51
2023-04-24T20:04:01.999Z,59.46
2023-04-24T20:06:29.646Z,58.93
2023-04-24T20:08:56.644Z,59.24
2023-04-24T20:11:23.197Z,59.02
2023-04-24T20:13:49.807Z,59.50
2023-04-24T20:16:16.678Z,59.34
2023-04-24T20:18:43.440Z,59.40
2023-04-24T20:21:09.889Z,59.36
2023-04-24T20:23:37.460Z,59.35
2023-04-24T20:26:04.983Z,60.23
2023-04-24T20:28:31.618Z,60.60
2023-04-24T20:30:59.036Z,60.65
2023-04-24T20:33:28.022Z,61.20
2023-04-24T20:35:54.654Z,61.39
2023-04-24T20:38:22.585Z,61.15
2023-04-24T20:40:57.629Z,61.68
2023-04-24T20:43:28.368Z,60.97
2023-04-24T20:45:56.381Z,61.12
2023-04-24T20:48:23.094Z,61.40
2023-04-24T20:50:50.188Z,61.78
2023-04-24T20:53:16.705Z,61.43
2023-04-24T20:55:43.282Z,61.74
2023-04-24T20:58:09.993Z,61.93
2023-04-24T21:00:36.474Z,61.50
2023-04-24T21:03:03.305Z,61.77
2023-04-24T21:05:29.872Z,61.34
2023-04-24T21:07:56.502Z,62.02
2023-04-24T21:10:24.187Z,61.78
2023-04-24T21:12:51.121Z,61.89
2023-04-24T21:15:18.162Z,61.56
2023-04-24T21:17:44.936Z,62.65
2023-04-24T21:20:11.753Z,62.98
2023-04-24T21:22:38.224Z,62.65
2023-04-24T21:25:05.368Z,62.64
2023-04-24T21:27:32.249Z,63.22
2023-04-24T21:29:58.761Z,63.41
2023-04-24T21:32:25.400Z,63.46
2023-04-24T21:34:52.294Z,64.18
2023-04-24T21:37:18.845Z,64.34
2023-04-24T21:39:45.414Z,64.75
2023-04-24T21:42:11.979Z,65.33
2023-04-24T21:44:38.623Z,65.82
2023-04-24T21:47:05.674Z,65.95
2023-04-24T21:49:32.136Z,65.23
2023-04-24T21:51:58.694Z,65.24
2023-04-24T21:54:25.253Z,65.80
2023-04-24T21:56:51.794Z,65.20
2023-04-24T21:59:18.419Z,65.36
2023-04-24T22:01:44.935Z,64.84
2023-04-24T22:04:11.872Z,64.52
2023-04-24T22:06:38.855Z,65.49
2023-04-24T22:09:05.921Z,65.65
2023-04-24T22:11:32.533Z,65.33
2023-04-24T22:13:59.209Z,65.32
2023-04-24T22:16:25.793Z,65.48
2023-04-24T22:18:55.589Z,65.50
2023-04-24T22:21:22.843Z,66.21
2023-04-24T22:23:49.655Z,65.25
2023-04-24T22:26:16.715Z,65.92
2023-04-24T22:28:43.150Z,66.10
2023-04-24T22:31:10.025Z,66.94
2023-04-24T22:33:36.678Z,67.28
2023-04-24T22:36:03.394Z,67.62
2023-04-24T22:38:29.814Z,67.40
2023-04-24T22:40:56.380Z,67.79
2023-04-24T22:43:22.872Z,68.49
2023-04-24T22:45:49.343Z,68.75
2023-04-24T22:48:16.389Z,67.65
2023-04-24T22:50:42.814Z,68.79
2023-04-24T22:53:09.369Z,69.21
2023-04-24T22:55:36.740Z,70.42
2023-04-24T22:58:03.204Z,70.20
2023-04-24T23:00:29.715Z,70.65
2023-04-24T23:02:56.244Z,70.64
2023-04-24T23:05:25.085Z,72.33
2023-04-24T23:07:51.920Z,73.04
2023-04-24T23:10:18.604Z,72.27
2023-04-24T23:12:45.083Z,73.27
2023-04-24T23:15:12.288Z,73.01
2023-04-24T23:17:39.087Z,72.95
2023-04-24T23:20:06.347Z,74.18
2023-04-24T23:22:33.667Z,73.32
2023-04-24T23:25:01.517Z,73.98
2023-04-24T23:27:28.895Z,73.74
2023-04-24T23:29:55.605Z,74.30
2023-04-24T23:32:22.492Z,75.15
2023-04-24T23:34:49.452Z,74.17
2023-04-24T23:37:19.093Z,73.83
2023-04-24T23:39:45.928Z,73.85
2023-04-24T23:42:12.681Z,73.35
2023-04-24T23:44:39.277Z,73.42
2023-04-24T23:47:05.868Z,74.02
2023-04-24T23:49:32.842Z,74.34
2023-04-24T23:51:59.301Z,73.50
2023-04-24T23:54:26.391Z,73.76
2023-04-24T23:56:52.821Z,74.22
2023-04-24T23:59:22.555Z,74.42
